createdAt,value
2018-11-14T02:37:33.649Z,4.01
2018-11-14T02:40:02.207Z,4.19
2018-11-14T02:42:30.757Z,4.27
2018-11-14T02:44:59.436Z,4.39
2018-11-14T02:47:28.074Z,4.62
2018-11-14T02:49:56.706Z,4.63
2018-11-14T02:52:25.373Z,4.72
2018-11-14T02:54:53.989Z,4.85
2018-11-14T02:57:23.041Z,4.86
2018-11-14T02:59:51.665Z,4.89
2018-11-14T03:02:20.356Z,4.94
2018-11-14T03:04:48.964Z,4.97
2018-11-14T03:07:17.611Z,4.94
2018-11-14T03:09:46.269Z,4.99
2018-11-14T03:12:15.058Z,4.97
2018-11-14T03:14:43.620Z,4.96
2018-11-14T03:17:12.288Z,5.06
2018-11-14T03:19:40.963Z,5.08
2018-11-14T03:22:09.576Z,4.91
2018-11-14T03:24:38.209Z,4.93
2018-11-14T03:27:06.933Z,4.83
2018-11-14T03:29:35.881Z,5.01
2018-11-14T03:32:04.565Z,5.05
2018-11-14T03:34:33.198Z,5.09
2018-11-14T03:37:01.857Z,5.00
2018-11-14T03:39:30.475Z,4.98
2018-11-14T03:41:59.084Z,4.99
2018-11-14T03:44:27.699Z,4.72
2018-11-14T03:46:56.296Z,4.79
2018-11-14T03:49:24.933Z,4.77
2018-11-14T03:51:53.600Z,4.99
2018-11-14T03:54:23.036Z,5.05
2018-11-14T03:56:51.681Z,5.16
2018-11-14T03:59:20.311Z,5.23
2018-11-14T04:01:48.981Z,5.19
2018-11-14T04:04:17.629Z,5.28
2018-11-14T04:06:46.237Z,5.18
2018-11-14T04:09:14.875Z,5.26
2018-11-14T04:11:43.490Z,5.08
2018-11-14T04:14:12.132Z,5.04
2018-11-14T04:16:40.756Z,4.88
2018-11-14T04:19:09.416Z,4.78
2018-11-14T04:21:38.203Z,4.70
2018-11-14T04:24:06.893Z,4.69
2018-11-14T04:26:35.572Z,4.68
2018-11-14T04:29:04.277Z,4.71
2018-11-14T04:31:32.868Z,4.63
2018-11-14T04:34:01.461Z,4.67
2018-11-14T04:36:30.121Z,4.70
2018-11-14T04:38:58.748Z,4.72
2018-11-14T04:41:27.397Z,4.80
2018-11-14T04:43:56.013Z,4.84
2018-11-14T04:46:24.693Z,4.84
2018-11-14T04:48:53.294Z,4.92
2018-11-14T04:51:21.913Z,4.94
2018-11-14T04:53:50.532Z,4.91
2018-11-14T04:56:19.140Z,4.84
2018-11-14T04:58:47.752Z,4.89
2018-11-14T05:01:16.378Z,4.91
2018-11-14T05:03:45.045Z,4.94
2018-11-14T05:06:13.662Z,4.90
2018-11-14T05:08:42.258Z,4.86
2018-11-14T05:11:10.933Z,4.92
2018-11-14T05:13:39.584Z,4.91
2018-11-14T05:16:08.250Z,4.88
2018-11-14T05:18:36.881Z,4.79
2018-11-14T05:21:05.732Z,4.89
2018-11-14T05:23:34.373Z,4.98
2018-11-14T05:26:03.044Z,4.97
2018-11-14T05:28:31.683Z,4.96
2018-11-14T05:31:00.414Z,4.88
2018-11-14T05:33:29.101Z,4.95
2018-11-14T05:35:57.729Z,4.97
2018-11-14T05:38:26.380Z,4.98
2018-11-14T05:40:54.977Z,5.05
2018-11-14T05:43:23.641Z,5.09
2018-11-14T05:45:52.278Z,5.07
2018-11-14T05:48:20.893Z,5.02
2018-11-14T05:50:49.574Z,4.90
2018-11-14T05:53:18.176Z,4.90
2018-11-14T05:55:46.770Z,4.92
2018-11-14T05:58:15.440Z,4.91
2018-11-14T06:00:44.060Z,4.91
2018-11-14T06:03:12.765Z,4.93
2018-11-14T06:05:41.457Z,5.03
2018-11-14T06:08:10.477Z,5.09
2018-11-14T06:10:39.246Z,5.12
2018-11-14T06:13:07.870Z,5.17
2018-11-14T06:15:36.564Z,5.29
2018-11-14T06:18:05.298Z,5.38
2018-11-14T06:20:33.901Z,5.37
2018-11-14T06:23:02.576Z,5.37
2018-11-14T06:25:38.255Z,5.42
2018-11-14T06:28:08.266Z,5.50
2018-11-14T06:30:37.593Z,5.55
2018-11-14T06:33:07.295Z,5.66
2018-11-14T06:35:35.952Z,5.66
2018-11-14T06:38:04.689Z,5.70
2018-11-14T06:40:33.536Z,5.83
2018-11-14T06:43:02.260Z,5.87
2018-11-14T06:45:32.093Z,5.91
2018-11-14T06:48:01.473Z,5.85
2018-11-14T06:50:30.185Z,5.82
2018-11-14T06:53:00.365Z,5.95
2018-11-14T06:55:28.992Z,6.11
2018-11-14T06:57:57.633Z,6.19
2018-11-14T07:00:27.453Z,6.33
2018-11-14T07:02:56.727Z,6.37
2018-11-14T07:05:25.456Z,6.40
2018-11-14T07:07:54.164Z,6.47
2018-11-14T07:10:24.133Z,6.43
2018-11-14T07:12:52.877Z,6.53
2018-11-14T07:15:22.644Z,6.63
2018-11-14T07:17:52.379Z,6.63
2018-11-14T07:20:25.229Z,6.70
2018-11-14T07:22:53.905Z,6.85
2018-11-14T07:25:22.859Z,7.02
2018-11-14T07:27:51.517Z,6.98
2018-11-14T07:30:22.105Z,7.15
2018-11-14T07:32:52.261Z,7.11
2018-11-14T07:35:21.049Z,7.27
2018-11-14T07:38:52.846Z,7.48
2018-11-14T07:41:23.717Z,7.57
2018-11-14T07:43:52.801Z,7.68
2018-11-14T07:46:22.020Z,7.75
2018-11-14T07:48:51.243Z,7.85
2018-11-14T07:51:19.897Z,7.85
2018-11-14T07:53:48.669Z,7.89
2018-11-14T07:56:17.394Z,7.96
2018-11-14T07:58:46.048Z,7.91
2018-11-14T08:01:14.869Z,8.06
2018-11-14T08:03:43.656Z,8.16
2018-11-14T08:06:12.314Z,8.19
2018-11-14T08:08:40.977Z,8.35
2018-11-14T08:11:09.848Z,8.49
2018-11-14T08:13:39.993Z,8.50
2018-11-14T08:16:08.645Z,8.66
2018-11-14T08:18:37.273Z,8.81
2018-11-14T08:21:06.237Z,8.97
2018-11-14T08:23:34.937Z,9.08
2018-11-14T08:26:03.617Z,9.15
2018-11-14T08:28:32.203Z,9.32
2018-11-14T08:31:00.833Z,9.57
2018-11-14T08:33:29.478Z,9.65
2018-11-14T08:35:58.241Z,9.80
2018-11-14T08:38:27.115Z,9.76
2018-11-14T08:40:55.989Z,9.89
2018-11-14T08:43:24.981Z,9.94
2018-11-14T08:45:53.649Z,9.86
2018-11-14T08:48:22.369Z,9.97
2018-11-14T08:50:51.026Z,9.86
2018-11-14T08:53:19.790Z,9.79
2018-11-14T08:55:48.748Z,9.83
2018-11-14T08:58:17.481Z,9.94
2018-11-14T09:00:46.210Z,9.92
2018-11-14T09:03:15.233Z,9.97
2018-11-14T09:05:43.892Z,10.11
2018-11-14T09:08:12.542Z,10.11
2018-11-14T09:10:41.177Z,10.17
2018-11-14T09:13:15.243Z,10.17
2018-11-14T09:15:44.093Z,10.09
2018-11-14T09:18:12.750Z,10.09
2018-11-14T09:20:41.412Z,9.93
2018-11-14T09:23:10.045Z,9.84
2018-11-14T09:25:38.687Z,9.62
2018-11-14T09:28:07.320Z,9.65
2018-11-14T09:30:35.933Z,9.53
2018-11-14T09:33:04.620Z,9.48
2018-11-14T09:35:33.294Z,9.44
2018-11-14T09:38:02.162Z,9.56
2018-11-14T09:40:31.292Z,9.50
2018-11-14T09:42:59.950Z,9.52
2018-11-14T09:45:30.036Z,9.57
2018-11-14T09:47:58.808Z,9.60
2018-11-14T09:50:29.542Z,9.67
2018-11-14T09:53:00.400Z,9.70
2018-11-14T09:55:29.222Z,9.62
2018-11-14T09:57:57.882Z,9.53
2018-11-14T10:00:27.943Z,9.54
2018-11-14T10:02:58.688Z,9.53
2018-11-14T10:05:27.389Z,9.57
2018-11-14T10:07:56.122Z,9.64
2018-11-14T10:10:25.318Z,9.71
2018-11-14T10:12:54.020Z,9.67
2018-11-14T10:15:23.963Z,9.63
2018-11-14T10:17:52.617Z,9.59
2018-11-14T10:20:22.540Z,9.53
2018-11-14T10:22:51.310Z,9.49
2018-11-14T10:25:20.237Z,9.47
2018-11-14T10:27:49.542Z,9.47
2018-11-14T10:30:19.854Z,9.54
2018-11-14T10:32:49.204Z,9.53
2018-11-14T10:35:17.819Z,9.46
2018-11-14T10:37:46.565Z,9.34
2018-11-14T10:40:17.872Z,9.29
2018-11-14T10:42:46.688Z,9.31
2018-11-14T10:45:17.434Z,9.24
2018-11-14T10:47:46.113Z,9.24
2018-11-14T10:50:19.141Z,9.28
2018-11-14T10:52:47.817Z,9.24
2018-11-14T10:55:17.089Z,9.19
2018-11-14T10:57:46.117Z,9.14
2018-11-14T11:00:26.146Z,9.20
2018-11-14T11:03:00.173Z,9.13
2018-11-14T11:05:34.958Z,9.23
2018-11-14T11:08:08.950Z,9.32
2018-11-14T11:10:43.408Z,9.30
2018-11-14T11:13:18.750Z,9.13
2018-11-14T11:15:52.576Z,9.09
2018-11-14T11:18:25.379Z,9.09
2018-11-14T11:20:54.141Z,9.19
2018-11-14T11:23:22.884Z,9.25
2018-11-14T11:25:51.604Z,9.25
2018-11-14T11:28:20.417Z,9.34
2018-11-14T11:30:49.541Z,9.39
2018-11-14T11:33:18.110Z,9.45
2018-11-14T11:35:46.806Z,9.37
2018-11-14T11:38:16.538Z,9.26
2018-11-14T11:40:45.443Z,9.30
2018-11-14T11:43:14.047Z,9.33
2018-11-14T11:45:42.649Z,9.25
2018-11-14T11:48:11.411Z,9.31
2018-11-14T11:50:40.063Z,9.44
2018-11-14T11:53:08.762Z,9.59
2018-11-14T11:55:37.400Z,9.41
2018-11-14T11:58:06.736Z,9.24
2018-11-14T12:00:35.679Z,9.10
2018-11-14T12:03:04.171Z,9.07
2018-11-14T12:05:32.801Z,9.09
2018-11-14T12:08:01.458Z,9.08
2018-11-14T12:10:30.214Z,8.96
2018-11-14T12:12:58.884Z,8.96
2018-11-14T12:15:27.568Z,8.92
2018-11-14T12:17:56.262Z,8.97
2018-11-14T12:20:24.820Z,8.99
2018-11-14T12:22:53.460Z,8.94
2018-11-14T12:25:22.121Z,8.95
2018-11-14T12:27:50.823Z,8.97
2018-11-14T12:30:19.717Z,8.82
2018-11-14T12:32:48.478Z,8.74
2018-11-14T12:35:17.786Z,8.74
2018-11-14T12:37:46.472Z,8.70
2018-11-14T12:40:15.772Z,8.62
2018-11-14T12:42:44.421Z,8.55
2018-11-14T12:45:15.205Z,8.49
2018-11-14T12:47:43.777Z,8.49
2018-11-14T12:50:13.424Z,8.47
2018-11-14T12:52:42.411Z,8.48
2018-11-14T12:55:12.821Z,8.35
2018-11-14T12:57:41.524Z,8.37
2018-11-14T13:00:12.783Z,8.37
2018-11-14T13:02:41.435Z,8.30
2018-11-14T13:05:11.146Z,8.33
2018-11-14T13:10:15.214Z,8.34
2018-11-14T13:12:44.626Z,8.45
2018-11-14T13:15:14.455Z,8.45
2018-11-14T13:17:43.892Z,8.43
2018-11-14T13:20:16.981Z,8.33
2018-11-14T13:22:46.128Z,8.30
2018-11-14T13:25:15.547Z,8.20
2018-11-14T13:27:45.937Z,8.18
2018-11-14T13:30:18.189Z,8.12
2018-11-14T13:32:47.656Z,8.13
2018-11-14T13:35:17.534Z,8.21
2018-11-14T13:37:47.081Z,8.16
2018-11-14T13:40:15.777Z,8.17
2018-11-14T13:42:44.618Z,8.25
2018-11-14T13:45:14.605Z,8.31
2018-11-14T13:47:43.712Z,8.26
2018-11-14T13:50:16.493Z,8.27
2018-11-14T13:52:45.088Z,8.28
2018-11-14T13:55:15.107Z,8.32
2018-11-14T13:57:45.099Z,8.32
2018-11-14T14:00:15.436Z,8.25
2018-11-14T14:02:45.937Z,8.23
2018-11-14T14:05:16.004Z,8.25
2018-11-14T14:07:44.772Z,8.29
2018-11-14T14:10:14.714Z,8.33
2018-11-14T14:12:45.567Z,8.37
2018-11-14T14:15:16.152Z,8.32
2018-11-14T14:17:45.859Z,8.23
2018-11-14T14:20:14.959Z,8.20
2018-11-14T14:22:43.721Z,8.21
2018-11-14T14:25:13.757Z,8.24
2018-11-14T14:27:42.475Z,8.28
2018-11-14T14:30:13.208Z,8.24
2018-11-14T14:32:42.800Z,8.30
2018-11-14T14:35:12.623Z,8.34
2018-11-14T14:37:41.447Z,8.35
2018-11-14T14:40:14.175Z,8.44
2018-11-14T14:42:43.053Z,8.47
2018-11-14T14:45:12.905Z,8.57
2018-11-14T14:47:41.670Z,8.64
2018-11-14T14:50:12.741Z,8.67
2018-11-14T14:52:41.886Z,8.65
2018-11-14T14:55:13.033Z,8.67
2018-11-14T14:57:42.152Z,8.73
2018-11-14T15:00:15.576Z,8.75
2018-11-14T15:02:44.574Z,8.75
2018-11-14T15:05:13.943Z,8.74
2018-11-14T15:07:42.849Z,8.70
2018-11-14T15:10:16.777Z,8.64
2018-11-14T15:12:45.576Z,8.63
2018-11-14T15:15:15.188Z,8.62
2018-11-14T15:17:44.204Z,8.61
2018-11-14T15:20:17.109Z,8.61
2018-11-14T15:22:45.845Z,8.58
2018-11-14T15:25:15.686Z,8.54
2018-11-14T15:27:44.856Z,8.55
2018-11-14T15:30:16.479Z,8.52
2018-11-14T15:32:45.203Z,8.47
2018-11-14T15:35:14.150Z,8.38
2018-11-14T15:37:42.840Z,8.37
2018-11-14T15:40:14.080Z,8.30
2018-11-14T15:42:42.877Z,8.28
2018-11-14T15:45:13.700Z,8.28
2018-11-14T15:47:42.477Z,8.24
2018-11-14T15:50:13.229Z,8.27
2018-11-14T15:52:42.851Z,8.24
2018-11-14T15:55:12.572Z,8.19
2018-11-14T15:57:41.391Z,8.17
2018-11-14T16:00:12.905Z,8.16
2018-11-14T16:02:42.296Z,8.16
2018-11-14T16:05:13.874Z,8.28
2018-11-14T16:07:43.461Z,8.24
2018-11-14T16:10:13.416Z,8.18
2018-11-14T16:12:42.484Z,8.12
2018-11-14T16:15:13.586Z,8.07
2018-11-14T16:17:42.567Z,8.12
2018-11-14T16:20:13.575Z,8.12
2018-11-14T16:22:42.302Z,8.02
2018-11-14T16:25:15.391Z,7.98
2018-11-14T16:27:44.947Z,7.99
2018-11-14T16:30:18.464Z,7.98
2018-11-14T16:32:48.311Z,7.90
2018-11-14T16:35:17.052Z,7.90
2018-11-14T16:37:45.865Z,7.94
2018-11-14T16:40:16.222Z,7.94
2018-11-14T16:42:44.915Z,7.95
2018-11-14T16:45:14.356Z,8.00
2018-11-14T16:47:43.292Z,7.97
2018-11-14T16:50:14.228Z,7.93
2018-11-14T16:52:43.030Z,7.96
2018-11-14T16:55:13.046Z,7.97
2018-11-14T16:57:42.541Z,7.96
2018-11-14T17:00:14.478Z,7.98
2018-11-14T17:02:43.329Z,7.93
2018-11-14T17:05:12.748Z,7.98
2018-11-14T17:07:41.536Z,7.97
2018-11-14T17:10:13.209Z,7.96
2018-11-14T17:12:42.424Z,7.98
2018-11-14T17:15:12.870Z,8.00
2018-11-14T17:17:41.788Z,7.99
2018-11-14T17:20:11.432Z,7.97
2018-11-14T17:22:40.420Z,7.97
2018-11-14T17:25:10.179Z,7.98
2018-11-14T17:27:38.897Z,8.00
2018-11-14T17:30:11.844Z,7.95
2018-11-14T17:32:40.560Z,8.01
2018-11-14T17:35:10.384Z,8.02
2018-11-14T17:37:39.806Z,8.05
2018-11-14T17:40:11.934Z,8.10
2018-11-14T17:42:41.259Z,8.12
2018-11-14T17:45:11.964Z,8.16
2018-11-14T17:47:40.757Z,8.17
2018-11-14T17:50:15.746Z,8.15
2018-11-14T17:52:44.464Z,8.20
2018-11-14T17:55:14.264Z,8.22
2018-11-14T17:57:43.143Z,8.22
2018-11-14T18:00:14.815Z,8.23
2018-11-14T18:02:44.384Z,8.24
2018-11-14T18:05:15.569Z,8.16
2018-11-14T18:07:45.081Z,8.14
2018-11-14T18:10:15.788Z,8.31
2018-11-14T18:12:46.276Z,8.33
2018-11-14T18:15:16.092Z,8.35
2018-11-14T18:17:45.367Z,8.34
2018-11-14T18:20:15.231Z,8.33
2018-11-14T18:22:44.670Z,8.36
2018-11-14T18:25:13.865Z,8.37
2018-11-14T18:27:42.516Z,8.39
2018-11-14T18:30:16.743Z,8.41
2018-11-14T18:32:45.343Z,8.38
2018-11-14T18:35:15.470Z,8.40
2018-11-14T18:37:44.745Z,8.41
2018-11-14T18:40:15.184Z,8.44
2018-11-14T18:42:43.856Z,8.41
2018-11-14T18:45:18.166Z,8.44
2018-11-14T18:47:47.262Z,8.45
2018-11-14T18:50:16.773Z,8.45
2018-11-14T18:52:46.193Z,8.46
2018-11-14T18:55:15.909Z,8.46
2018-11-14T18:57:44.869Z,8.45
2018-11-14T19:00:22.166Z,8.41
2018-11-14T19:02:51.736Z,8.41
2018-11-14T19:05:20.864Z,8.44
2018-11-14T19:07:49.653Z,8.44
2018-11-14T19:10:19.968Z,8.43
2018-11-14T19:12:49.252Z,8.45
2018-11-14T19:15:19.338Z,8.48
2018-11-14T19:17:48.009Z,8.50
2018-11-14T19:20:19.072Z,8.53
2018-11-14T19:22:47.809Z,8.53
2018-11-14T19:25:17.880Z,8.58
2018-11-14T19:27:47.196Z,8.55
2018-11-14T19:30:17.359Z,8.60
2018-11-14T19:32:47.174Z,8.62
2018-11-14T19:35:16.120Z,8.57
2018-11-14T19:37:45.832Z,8.56
2018-11-14T19:40:16.289Z,8.58
2018-11-14T19:42:45.602Z,8.58
2018-11-14T19:45:16.529Z,8.60
2018-11-14T19:47:45.136Z,8.60
2018-11-14T19:50:15.108Z,8.59
2018-11-14T19:52:44.204Z,8.56
2018-11-14T19:55:14.307Z,8.56
2018-11-14T19:57:43.950Z,8.58
2018-11-14T20:00:17.863Z,8.59
2018-11-14T20:02:46.557Z,8.55
2018-11-14T20:05:16.064Z,8.62
2018-11-14T20:07:44.812Z,8.58
2018-11-14T20:10:17.056Z,8.55
2018-11-14T20:12:46.172Z,8.52
2018-11-14T20:15:16.537Z,8.50
2018-11-14T20:17:45.826Z,8.51
2018-11-14T20:20:16.865Z,8.53
2018-11-14T20:22:46.084Z,8.55
2018-11-14T20:25:14.708Z,8.55
2018-11-14T20:27:43.831Z,8.54
2018-11-14T20:30:18.414Z,8.55
2018-11-14T20:32:47.097Z,8.54
2018-11-14T20:35:16.876Z,8.46
2018-11-14T20:37:45.564Z,8.52
2018-11-14T20:40:15.667Z,8.50
2018-11-14T20:42:44.797Z,8.52
2018-11-14T20:45:17.049Z,8.51
2018-11-14T20:47:45.723Z,8.48
2018-11-14T20:50:17.986Z,8.46
2018-11-14T20:52:47.868Z,8.49
2018-11-14T20:55:16.529Z,8.48
2018-11-14T20:57:45.606Z,8.50
2018-11-14T21:00:36.733Z,8.52
2018-11-14T21:03:06.125Z,8.57
2018-11-14T21:05:34.791Z,8.52
